Terminal Aerodrome Forecast
Issued by NWS Pocatello, ID

Home | Current Version | Previous Version | Text Only | Print | Product List | Glossary On
Versions: 1 2 3 4 5 6 7 8 9 10 11 12 13 14 15 16
000
FTUS45 KPIH 280150 AAA
TAFBYI
TAF AMD
KBYI 280150Z 2802/2824 28010KT P6SM -SHRA SCT040 BKN060 BKN200
     FM280600 21010KT P6SM VCSH SCT040 BKN090 BKN200
     FM280900 19007KT P6SM -SHRA BKN060 BKN200
     FM281800 27010KT P6SM VCTS SCT040CB SCT140 BKN200=

USA.gov is the U.S. government's official web portal to all federal, state and local government web resources and services.